To NAV CANADA Home Page Login to a new session Search on AWWS site Feedback and Comments Disclaimer Vers la page française équivalente Tips FAQ What's new on the site To the Forecasts and Observations / NOTAM section To "File a Flight Plan" website Publications and other links Update of the User's profile FIC Telephone Numbers My Weather Data Folder Route Weather Data Regional Weather Data Local Weather Data To the Forecasts and Observations / NOTAM section
Request Generated 06/26/2017 at 03:29:22 UTC . Weather information available at that time is displayed.

METAR/TAF

CAPE DORSET/NU    (show WxCam)

METAR CYTE 260300Z AUTO 36008KT 9SM SCT016 SCT023 OVC036 06/02 A2966
RMK SLP049=
SPECI CYTE 260259Z AUTO 36009KT 9SM SCT016 SCT023 OVC036 06/02 A2966
RMK SLP049=
SPECI CYTE 260247Z AUTO 01008G15KT 9SM SCT016 BKN023 OVC036 06/02
A2966 RMK SLP049=
METAR CYTE 260200Z AUTO 01007KT 340V040 9SM OVC031 06/02 A2967 RMK
SLP051=
METAR CYTE 260100Z AUTO 01007G15KT 9SM OVC025 06/02 A2967 RMK SLP052=

TAF AMD CYTE 260255Z 2602/2613 01015KT P6SM SCT015 OVC025 TEMPO
2602/2613 5SM -RA BR SCT007 OVC015
RMK FCST BASED ON AUTO OBS. NXT FCST BY 260700Z=
Your time UTC time
Weather data provided by Environment Canada and NAV CANADA